AFL1233 ULLI-ULAA
Flight info
| Callsign | AFL1233 |
|---|---|
| Flight time | 1h 13m |
| Altitude | 37000 |
| Route | PETAP1D PETAP T821 MAKOG MAKOG3M |
| Aircraft | A320/M-SDE3FGHIRWY/LB1 |
Departure
| Time | 2026-04-20 18:53 |
|---|---|
| Airport | Pulkovo Airport (ULLI) |
Arrival
| Time | 2026-04-20 20:07 |
|---|---|
| Airport | Talagi Airport (ULAA) |
| Time | Latitude | Longitude | Altitude | Speed | Heading |
|---|---|---|---|---|---|
| 2026-04-20 18:35 | 59.79634 | 30.26606 | 77 ft | 0 kts | 96° |
| 2026-04-20 18:45 | 59.79635 | 30.26584 | 68 ft | 2 kts | 96° |
| 2026-04-20 18:46 | 59.79637 | 30.26551 | 74 ft | 2 kts | 96° |
| 2026-04-20 18:46 | 59.79639 | 30.26517 | 69 ft | 2 kts | 96° |
| 2026-04-20 18:46 | 59.79641 | 30.26483 | 68 ft | 2 kts | 96° |
| 2026-04-20 18:46 | 59.79643 | 30.26450 | 69 ft | 2 kts | 96° |
| 2026-04-20 18:47 | 59.79642 | 30.26417 | 69 ft | 2 kts | 39° |
| 2026-04-20 18:47 | 59.79636 | 30.26406 | 68 ft | 0 kts | 3° |
| 2026-04-20 18:47 | 59.79637 | 30.26406 | 68 ft | 0 kts | 3° |
| 2026-04-20 18:49 | 59.79642 | 30.26408 | 69 ft | 3 kts | 5° |
| 2026-04-20 18:49 | 59.79676 | 30.26426 | 70 ft | 8 kts | 19° |
| 2026-04-20 18:49 | 59.79753 | 30.26479 | 72 ft | 21 kts | 19° |
| 2026-04-20 18:50 | 59.79925 | 30.26594 | 73 ft | 27 kts | 16° |
| 2026-04-20 18:50 | 59.80122 | 30.26710 | 68 ft | 32 kts | 16° |
| 2026-04-20 18:50 | 59.80334 | 30.26834 | 73 ft | 27 kts | 16° |
| 2026-04-20 18:50 | 59.80409 | 30.26786 | 66 ft | 16 kts | 294° |
| 2026-04-20 18:51 | 59.80473 | 30.26338 | 70 ft | 33 kts | 286° |
| 2026-04-20 18:51 | 59.80541 | 30.25904 | 65 ft | 34 kts | 288° |
| 2026-04-20 18:51 | 59.80605 | 30.25450 | 66 ft | 35 kts | 287° |
| 2026-04-20 18:51 | 59.80671 | 30.25030 | 65 ft | 32 kts | 288° |
| 2026-04-20 18:52 | 59.80734 | 30.24649 | 64 ft | 11 kts | 312° |
| 2026-04-20 18:52 | 59.80800 | 30.24592 | 64 ft | 10 kts | 346° |
| 2026-04-20 18:52 | 59.80865 | 30.24561 | 65 ft | 12 kts | 348° |
| 2026-04-20 18:52 | 59.80951 | 30.24606 | 60 ft | 15 kts | 72° |
| 2026-04-20 18:53 | 59.80916 | 30.24912 | 64 ft | 48 kts | 106° |
| 2026-04-20 18:53 | 59.80753 | 30.26017 | 73 ft | 115 kts | 105° |
| 2026-04-20 18:53 | 59.80480 | 30.27890 | 104 ft | 162 kts | 107° |
| 2026-04-20 18:53 | 59.80160 | 30.30021 | 774 ft | 162 kts | 103° |
| 2026-04-20 18:54 | 59.79818 | 30.32149 | 1580 ft | 162 kts | 103° |
| 2026-04-20 18:54 | 59.79567 | 30.33546 | 2125 ft | 161 kts | 104° |
| 2026-04-20 18:54 | 59.79168 | 30.35624 | 2907 ft | 161 kts | 99° |
| 2026-04-20 18:54 | 59.79181 | 30.37889 | 3371 ft | 174 kts | 66° |
| 2026-04-20 18:55 | 59.80007 | 30.39765 | 3808 ft | 199 kts | 28° |
| 2026-04-20 18:55 | 59.81476 | 30.40019 | 4248 ft | 234 kts | 352° |
| 2026-04-20 18:55 | 59.83064 | 30.38773 | 4972 ft | 253 kts | 338° |
| 2026-04-20 18:55 | 59.84616 | 30.37001 | 5905 ft | 259 kts | 334° |
| 2026-04-20 18:56 | 59.86137 | 30.35102 | 6838 ft | 264 kts | 333° |
| 2026-04-20 18:56 | 59.87698 | 30.33154 | 7727 ft | 266 kts | 334° |
| 2026-04-20 18:56 | 59.89293 | 30.31223 | 8643 ft | 270 kts | 335° |
| 2026-04-20 18:56 | 59.90920 | 30.29310 | 9534 ft | 274 kts | 336° |
| 2026-04-20 18:57 | 59.92584 | 30.27392 | 10380 ft | 279 kts | 336° |
| 2026-04-20 18:57 | 59.94353 | 30.25395 | 10717 ft | 303 kts | 336° |
| 2026-04-20 18:57 | 59.96242 | 30.23284 | 11086 ft | 322 kts | 336° |
| 2026-04-20 18:57 | 59.98264 | 30.21022 | 11349 ft | 344 kts | 336° |
| 2026-04-20 18:58 | 60.00417 | 30.18603 | 11539 ft | 366 kts | 335° |
| 2026-04-20 18:58 | 60.02703 | 30.16026 | 11664 ft | 386 kts | 335° |
| 2026-04-20 18:58 | 60.05089 | 30.13320 | 12009 ft | 398 kts | 335° |
| 2026-04-20 18:58 | 60.07501 | 30.10563 | 12632 ft | 401 kts | 335° |
| 2026-04-20 18:59 | 60.09930 | 30.07774 | 13261 ft | 404 kts | 335° |
| 2026-04-20 18:59 | 60.12383 | 30.04961 | 13869 ft | 408 kts | 335° |
| 2026-04-20 18:59 | 60.14865 | 30.02118 | 14406 ft | 411 kts | 335° |
| 2026-04-20 18:59 | 60.17323 | 29.99302 | 14898 ft | 414 kts | 335° |
| 2026-04-20 19:00 | 60.19840 | 29.96413 | 15421 ft | 417 kts | 335° |
| 2026-04-20 19:00 | 60.22358 | 29.93515 | 15936 ft | 419 kts | 335° |
| 2026-04-20 19:00 | 60.24903 | 29.90582 | 16445 ft | 422 kts | 335° |
| 2026-04-20 19:00 | 60.27466 | 29.87649 | 16928 ft | 424 kts | 337° |
| 2026-04-20 19:01 | 60.30207 | 29.85730 | 17351 ft | 415 kts | 356° |
| 2026-04-20 19:01 | 60.33050 | 29.86002 | 17790 ft | 408 kts | 17° |
| 2026-04-20 19:01 | 60.35607 | 29.88364 | 18247 ft | 405 kts | 37° |
| 2026-04-20 19:01 | 60.37539 | 29.92423 | 18651 ft | 406 kts | 55° |
| 2026-04-20 19:02 | 60.39040 | 29.97302 | 19045 ft | 409 kts | 57° |
| 2026-04-20 19:02 | 60.40512 | 30.02246 | 19445 ft | 410 kts | 58° |
| 2026-04-20 19:02 | 60.41972 | 30.07225 | 19831 ft | 412 kts | 58° |
| 2026-04-20 19:02 | 60.43435 | 30.12253 | 20204 ft | 414 kts | 58° |
| 2026-04-20 19:03 | 60.44894 | 30.17273 | 20569 ft | 416 kts | 58° |
| 2026-04-20 19:03 | 60.46371 | 30.22341 | 20929 ft | 417 kts | 58° |
| 2026-04-20 19:03 | 60.47838 | 30.27358 | 21257 ft | 419 kts | 58° |
| 2026-04-20 19:03 | 60.49347 | 30.32505 | 21599 ft | 421 kts | 58° |
| 2026-04-20 19:04 | 60.50833 | 30.37577 | 21931 ft | 423 kts | 58° |
| 2026-04-20 19:04 | 60.52335 | 30.42717 | 22264 ft | 424 kts | 58° |
| 2026-04-20 19:04 | 60.53841 | 30.47885 | 22590 ft | 426 kts | 58° |
| 2026-04-20 19:04 | 60.55351 | 30.53099 | 22920 ft | 428 kts | 58° |
| 2026-04-20 19:05 | 60.56863 | 30.58335 | 23213 ft | 430 kts | 58° |
| 2026-04-20 19:05 | 60.58387 | 30.63616 | 23496 ft | 432 kts | 58° |
| 2026-04-20 19:05 | 60.59892 | 30.68824 | 23799 ft | 433 kts | 58° |
| 2026-04-20 19:05 | 60.61431 | 30.74162 | 24130 ft | 432 kts | 58° |
| 2026-04-20 19:06 | 60.62934 | 30.79387 | 24467 ft | 430 kts | 58° |
| 2026-04-20 19:06 | 60.64443 | 30.84646 | 24846 ft | 429 kts | 58° |
| 2026-04-20 19:06 | 60.65941 | 30.89886 | 25215 ft | 427 kts | 58° |
| 2026-04-20 19:06 | 60.67434 | 30.95112 | 25614 ft | 425 kts | 58° |
| 2026-04-20 19:07 | 60.68921 | 31.00331 | 26008 ft | 424 kts | 58° |
| 2026-04-20 19:07 | 60.70401 | 31.05532 | 26409 ft | 422 kts | 58° |
| 2026-04-20 19:07 | 60.71852 | 31.10648 | 26816 ft | 420 kts | 58° |
| 2026-04-20 19:07 | 60.73328 | 31.15869 | 27192 ft | 419 kts | 58° |
| 2026-04-20 19:08 | 60.74769 | 31.20981 | 27558 ft | 419 kts | 58° |
| 2026-04-20 19:08 | 60.77700 | 31.31435 | 27876 ft | 427 kts | 58° |
| 2026-04-20 19:08 | 60.79180 | 31.36726 | 28171 ft | 427 kts | 58° |
| 2026-04-20 19:09 | 60.80636 | 31.41932 | 28556 ft | 426 kts | 58° |
| 2026-04-20 19:09 | 60.82105 | 31.47192 | 28972 ft | 425 kts | 58° |
| 2026-04-20 19:09 | 60.83571 | 31.52448 | 29397 ft | 423 kts | 58° |
| 2026-04-20 19:09 | 60.85025 | 31.57675 | 29827 ft | 421 kts | 58° |
| 2026-04-20 19:10 | 60.86472 | 31.62887 | 30266 ft | 420 kts | 58° |
| 2026-04-20 19:10 | 60.87915 | 31.68090 | 30636 ft | 418 kts | 58° |
| 2026-04-20 19:10 | 60.89351 | 31.73276 | 30966 ft | 417 kts | 58° |
| 2026-04-20 19:10 | 60.90780 | 31.78450 | 31282 ft | 417 kts | 58° |
| 2026-04-20 19:11 | 60.92210 | 31.83658 | 31618 ft | 416 kts | 58° |
| 2026-04-20 19:11 | 60.93626 | 31.88846 | 31985 ft | 415 kts | 58° |
| 2026-04-20 19:11 | 60.95034 | 31.94030 | 32319 ft | 415 kts | 58° |
| 2026-04-20 19:11 | 60.96470 | 31.99165 | 32641 ft | 413 kts | 55° |
| 2026-04-20 19:12 | 60.98212 | 32.03756 | 32944 ft | 411 kts | 46° |
| 2026-04-20 19:12 | 61.00253 | 32.07862 | 33238 ft | 411 kts | 44° |
| 2026-04-20 19:12 | 61.02316 | 32.11964 | 33545 ft | 411 kts | 44° |
| 2026-04-20 19:12 | 61.04365 | 32.16066 | 33842 ft | 411 kts | 44° |
| 2026-04-20 19:13 | 61.06411 | 32.20182 | 34168 ft | 410 kts | 44° |
| 2026-04-20 19:13 | 61.08458 | 32.24313 | 34439 ft | 410 kts | 44° |
| 2026-04-20 19:13 | 61.10495 | 32.28436 | 34628 ft | 411 kts | 44° |
| 2026-04-20 19:13 | 61.12548 | 32.32594 | 34824 ft | 413 kts | 44° |
| 2026-04-20 19:14 | 61.14602 | 32.36756 | 35023 ft | 415 kts | 44° |
| 2026-04-20 19:14 | 61.16674 | 32.40957 | 35215 ft | 416 kts | 44° |
| 2026-04-20 19:14 | 61.18739 | 32.45156 | 35409 ft | 418 kts | 44° |
| 2026-04-20 19:14 | 61.20818 | 32.49394 | 35601 ft | 419 kts | 44° |
| 2026-04-20 19:15 | 61.22899 | 32.53645 | 35794 ft | 421 kts | 44° |
| 2026-04-20 19:15 | 61.24958 | 32.57862 | 35968 ft | 422 kts | 44° |
| 2026-04-20 19:15 | 61.27056 | 32.62169 | 36151 ft | 423 kts | 44° |
| 2026-04-20 19:15 | 61.29164 | 32.66439 | 36320 ft | 425 kts | 44° |
| 2026-04-20 19:16 | 61.31301 | 32.70689 | 36497 ft | 426 kts | 43° |
| 2026-04-20 19:16 | 61.33459 | 32.74952 | 36654 ft | 427 kts | 43° |
| 2026-04-20 19:16 | 61.35625 | 32.79219 | 36825 ft | 428 kts | 43° |
| 2026-04-20 19:16 | 61.37794 | 32.83506 | 36986 ft | 430 kts | 43° |
| 2026-04-20 19:17 | 61.39956 | 32.87805 | 37181 ft | 430 kts | 43° |
| 2026-04-20 19:17 | 61.44300 | 32.96521 | 37271 ft | 433 kts | 43° |
| 2026-04-20 19:18 | 61.48458 | 33.05507 | 37269 ft | 434 kts | 51° |
| 2026-04-20 19:18 | 61.52174 | 33.15525 | 37270 ft | 434 kts | 51° |
| 2026-04-20 19:19 | 61.55887 | 33.25523 | 37267 ft | 434 kts | 51° |
| 2026-04-20 19:19 | 61.59591 | 33.35540 | 37271 ft | 435 kts | 51° |
| 2026-04-20 19:20 | 61.63281 | 33.45570 | 37274 ft | 435 kts | 51° |
| 2026-04-20 19:20 | 61.66987 | 33.55694 | 37276 ft | 436 kts | 51° |
| 2026-04-20 19:21 | 61.70655 | 33.65757 | 37270 ft | 435 kts | 51° |
| 2026-04-20 19:21 | 61.74339 | 33.75920 | 37264 ft | 435 kts | 51° |
| 2026-04-20 19:22 | 61.78018 | 33.86115 | 37265 ft | 436 kts | 51° |
| 2026-04-20 19:22 | 61.81672 | 33.96263 | 37262 ft | 437 kts | 51° |
| 2026-04-20 19:23 | 61.85343 | 34.06510 | 37260 ft | 437 kts | 51° |
| 2026-04-20 19:23 | 61.89178 | 34.16515 | 37281 ft | 435 kts | 42° |
| 2026-04-20 19:24 | 61.93801 | 34.24801 | 37301 ft | 435 kts | 39° |
| 2026-04-20 19:24 | 61.98414 | 34.33006 | 37290 ft | 435 kts | 39° |
| 2026-04-20 19:25 | 62.03063 | 34.41342 | 37280 ft | 436 kts | 39° |
| 2026-04-20 19:25 | 62.07698 | 34.49690 | 37277 ft | 437 kts | 39° |
| 2026-04-20 19:26 | 62.12344 | 34.58076 | 37272 ft | 437 kts | 39° |
| 2026-04-20 19:26 | 62.16988 | 34.66496 | 37271 ft | 437 kts | 39° |
| 2026-04-20 19:27 | 62.21595 | 34.74880 | 37274 ft | 438 kts | 39° |
| 2026-04-20 19:27 | 62.26234 | 34.83360 | 37274 ft | 438 kts | 39° |
| 2026-04-20 19:28 | 62.30871 | 34.91887 | 37275 ft | 439 kts | 39° |
| 2026-04-20 19:28 | 62.35510 | 35.00447 | 37275 ft | 439 kts | 39° |
| 2026-04-20 19:29 | 62.40147 | 35.09034 | 37275 ft | 439 kts | 39° |
| 2026-04-20 19:29 | 62.44765 | 35.17700 | 37278 ft | 439 kts | 40° |
| 2026-04-20 19:30 | 62.49348 | 35.26418 | 37274 ft | 439 kts | 40° |
| 2026-04-20 19:30 | 62.53931 | 35.35181 | 37273 ft | 439 kts | 40° |
| 2026-04-20 19:31 | 62.58484 | 35.43915 | 37273 ft | 439 kts | 40° |
| 2026-04-20 19:31 | 62.63064 | 35.52716 | 37272 ft | 440 kts | 40° |
| 2026-04-20 19:32 | 62.67642 | 35.61546 | 37276 ft | 440 kts | 40° |
| 2026-04-20 19:32 | 62.72227 | 35.70443 | 37274 ft | 440 kts | 40° |
| 2026-04-20 19:33 | 62.76774 | 35.79294 | 37276 ft | 441 kts | 40° |
| 2026-04-20 19:33 | 62.81351 | 35.88248 | 37273 ft | 441 kts | 40° |
| 2026-04-20 19:34 | 62.85928 | 35.97251 | 37275 ft | 442 kts | 40° |
| 2026-04-20 19:34 | 62.90509 | 36.06268 | 37272 ft | 442 kts | 40° |
| 2026-04-20 19:35 | 62.95112 | 36.15239 | 37279 ft | 442 kts | 40° |
| 2026-04-20 19:35 | 62.99687 | 36.24180 | 37275 ft | 443 kts | 40° |
| 2026-04-20 19:36 | 63.04285 | 36.33234 | 37277 ft | 443 kts | 40° |
| 2026-04-20 19:36 | 63.08882 | 36.42321 | 37280 ft | 443 kts | 40° |
| 2026-04-20 19:37 | 63.13472 | 36.51434 | 37279 ft | 444 kts | 40° |
| 2026-04-20 19:37 | 63.18025 | 36.60548 | 37280 ft | 444 kts | 40° |
| 2026-04-20 19:38 | 63.22433 | 36.70262 | 37282 ft | 446 kts | 48° |
| 2026-04-20 19:38 | 63.26387 | 36.80846 | 37273 ft | 442 kts | 48° |
| 2026-04-20 19:39 | 63.30198 | 36.91101 | 37272 ft | 428 kts | 48° |
| 2026-04-20 19:39 | 63.33989 | 37.01330 | 37272 ft | 426 kts | 48° |
| 2026-04-20 19:40 | 63.37755 | 37.11529 | 37269 ft | 427 kts | 48° |
| 2026-04-20 19:40 | 63.41526 | 37.21808 | 37269 ft | 428 kts | 48° |
| 2026-04-20 19:41 | 63.45273 | 37.32051 | 37274 ft | 428 kts | 48° |
| 2026-04-20 19:41 | 63.49036 | 37.42382 | 37275 ft | 428 kts | 48° |
| 2026-04-20 19:42 | 63.52790 | 37.52759 | 37274 ft | 429 kts | 49° |
| 2026-04-20 19:42 | 63.56544 | 37.63179 | 37270 ft | 429 kts | 48° |
| 2026-04-20 19:43 | 63.60294 | 37.73597 | 37278 ft | 429 kts | 49° |
| 2026-04-20 19:43 | 63.64033 | 37.84066 | 37269 ft | 430 kts | 49° |
| 2026-04-20 19:44 | 63.67757 | 37.94538 | 37270 ft | 430 kts | 49° |
| 2026-04-20 19:44 | 63.71493 | 38.05110 | 37270 ft | 431 kts | 49° |
| 2026-04-20 19:45 | 63.75232 | 38.15755 | 37262 ft | 434 kts | 49° |
| 2026-04-20 19:45 | 63.77104 | 38.21096 | 37041 ft | 435 kts | 49° |
| 2026-04-20 19:45 | 63.78741 | 38.25775 | 36809 ft | 433 kts | 49° |
| 2026-04-20 19:45 | 63.80616 | 38.31137 | 36553 ft | 432 kts | 49° |
| 2026-04-20 19:46 | 63.82485 | 38.36488 | 35952 ft | 435 kts | 49° |
| 2026-04-20 19:46 | 63.83728 | 38.40057 | 35481 ft | 436 kts | 49° |
| 2026-04-20 19:46 | 63.85594 | 38.45422 | 34946 ft | 431 kts | 48° |
| 2026-04-20 19:46 | 63.87439 | 38.50748 | 34385 ft | 427 kts | 48° |
| 2026-04-20 19:47 | 63.89259 | 38.56025 | 33675 ft | 424 kts | 48° |
| 2026-04-20 19:47 | 63.91091 | 38.61344 | 32631 ft | 429 kts | 48° |
| 2026-04-20 19:47 | 63.93517 | 38.68406 | 31684 ft | 425 kts | 48° |
| 2026-04-20 19:47 | 63.94724 | 38.71929 | 31265 ft | 422 kts | 48° |
| 2026-04-20 19:48 | 63.96541 | 38.77241 | 30645 ft | 417 kts | 48° |
| 2026-04-20 19:48 | 63.98283 | 38.82352 | 30018 ft | 412 kts | 48° |
| 2026-04-20 19:48 | 64.00027 | 38.87481 | 29313 ft | 408 kts | 48° |
| 2026-04-20 19:48 | 64.01777 | 38.92631 | 28587 ft | 404 kts | 48° |
| 2026-04-20 19:49 | 64.03470 | 38.97623 | 27936 ft | 400 kts | 48° |
| 2026-04-20 19:49 | 64.05162 | 39.02626 | 27294 ft | 397 kts | 49° |
| 2026-04-20 19:49 | 64.06685 | 39.07890 | 26666 ft | 397 kts | 57° |
| 2026-04-20 19:49 | 64.07896 | 39.13530 | 26077 ft | 394 kts | 60° |
| 2026-04-20 19:50 | 64.09067 | 39.19160 | 25504 ft | 390 kts | 60° |
| 2026-04-20 19:50 | 64.10225 | 39.24730 | 24918 ft | 386 kts | 60° |
| 2026-04-20 19:50 | 64.11368 | 39.30262 | 24333 ft | 382 kts | 60° |
| 2026-04-20 19:50 | 64.12499 | 39.35752 | 23746 ft | 379 kts | 60° |
| 2026-04-20 19:51 | 64.13622 | 39.41191 | 23084 ft | 376 kts | 60° |
| 2026-04-20 19:51 | 64.14730 | 39.46577 | 22454 ft | 373 kts | 60° |
| 2026-04-20 19:51 | 64.15833 | 39.51939 | 21855 ft | 370 kts | 61° |
| 2026-04-20 19:51 | 64.16924 | 39.57261 | 21272 ft | 367 kts | 61° |
| 2026-04-20 19:52 | 64.18003 | 39.62547 | 20677 ft | 365 kts | 61° |
| 2026-04-20 19:52 | 64.19057 | 39.67734 | 20027 ft | 359 kts | 61° |
| 2026-04-20 19:52 | 64.20110 | 39.72915 | 19055 ft | 355 kts | 61° |
| 2026-04-20 19:52 | 64.21149 | 39.78027 | 18066 ft | 352 kts | 61° |
| 2026-04-20 19:53 | 64.22174 | 39.83083 | 17082 ft | 347 kts | 62° |
| 2026-04-20 19:53 | 64.23186 | 39.88095 | 16429 ft | 345 kts | 62° |
| 2026-04-20 19:53 | 64.24191 | 39.93124 | 15926 ft | 345 kts | 62° |
| 2026-04-20 19:53 | 64.25186 | 39.98109 | 15419 ft | 342 kts | 62° |
| 2026-04-20 19:54 | 64.26183 | 40.03108 | 14897 ft | 343 kts | 62° |
| 2026-04-20 19:54 | 64.27179 | 40.08091 | 14374 ft | 342 kts | 62° |
| 2026-04-20 19:54 | 64.28175 | 40.13060 | 13802 ft | 341 kts | 62° |
| 2026-04-20 19:54 | 64.29160 | 40.17988 | 13255 ft | 338 kts | 62° |
| 2026-04-20 19:55 | 64.30138 | 40.22901 | 12700 ft | 336 kts | 62° |
| 2026-04-20 19:55 | 64.31104 | 40.27773 | 12149 ft | 333 kts | 63° |
| 2026-04-20 19:55 | 64.32063 | 40.32640 | 11592 ft | 331 kts | 63° |
| 2026-04-20 19:55 | 64.32995 | 40.37390 | 11061 ft | 329 kts | 63° |
| 2026-04-20 19:56 | 64.33930 | 40.42163 | 10962 ft | 324 kts | 63° |
| 2026-04-20 19:56 | 64.34857 | 40.46904 | 10876 ft | 324 kts | 63° |
| 2026-04-20 19:56 | 64.35782 | 40.51644 | 10750 ft | 323 kts | 63° |
| 2026-04-20 19:56 | 64.36707 | 40.56381 | 10607 ft | 323 kts | 63° |
| 2026-04-20 19:57 | 64.37625 | 40.61099 | 10458 ft | 322 kts | 63° |
| 2026-04-20 19:57 | 64.38537 | 40.65822 | 10333 ft | 322 kts | 64° |
| 2026-04-20 19:57 | 64.39450 | 40.70546 | 10039 ft | 322 kts | 64° |
| 2026-04-20 19:57 | 64.40372 | 40.75318 | 9347 ft | 323 kts | 64° |
| 2026-04-20 19:58 | 64.41276 | 40.80015 | 8941 ft | 314 kts | 64° |
| 2026-04-20 19:58 | 64.42154 | 40.84590 | 8053 ft | 309 kts | 64° |
| 2026-04-20 19:58 | 64.43009 | 40.89069 | 7554 ft | 293 kts | 64° |
| 2026-04-20 19:58 | 64.43791 | 40.93176 | 7277 ft | 274 kts | 64° |
| 2026-04-20 19:59 | 64.44527 | 40.97055 | 7123 ft | 251 kts | 64° |
| 2026-04-20 19:59 | 64.45196 | 41.00589 | 6995 ft | 230 kts | 64° |
| 2026-04-20 19:59 | 64.45819 | 41.03870 | 6869 ft | 214 kts | 64° |
| 2026-04-20 19:59 | 64.46400 | 41.06921 | 6754 ft | 199 kts | 64° |
| 2026-04-20 20:00 | 64.46981 | 41.09690 | 6419 ft | 189 kts | 56° |
| 2026-04-20 20:00 | 64.47859 | 41.12073 | 5679 ft | 198 kts | 40° |
| 2026-04-20 20:00 | 64.49029 | 41.13840 | 4998 ft | 203 kts | 24° |
| 2026-04-20 20:00 | 64.50364 | 41.14765 | 4478 ft | 198 kts | 8° |
| 2026-04-20 20:01 | 64.51667 | 41.15106 | 4334 ft | 179 kts | 7° |
| 2026-04-20 20:01 | 64.52841 | 41.15435 | 4240 ft | 161 kts | 7° |
| 2026-04-20 20:01 | 64.53908 | 41.15742 | 4179 ft | 158 kts | 7° |
| 2026-04-20 20:01 | 64.55089 | 41.16083 | 4111 ft | 177 kts | 7° |
| 2026-04-20 20:02 | 64.56325 | 41.16300 | 4017 ft | 177 kts | 353° |
| 2026-04-20 20:02 | 64.57388 | 41.15153 | 3935 ft | 167 kts | 317° |
| 2026-04-20 20:02 | 64.57930 | 41.12805 | 3628 ft | 173 kts | 278° |
| 2026-04-20 20:02 | 64.58025 | 41.09985 | 3297 ft | 175 kts | 280° |
| 2026-04-20 20:03 | 64.58209 | 41.07189 | 3024 ft | 174 kts | 279° |
| 2026-04-20 20:03 | 64.58367 | 41.04446 | 2799 ft | 165 kts | 278° |
| 2026-04-20 20:03 | 64.58502 | 41.01927 | 2551 ft | 149 kts | 278° |
| 2026-04-20 20:03 | 64.58620 | 40.99645 | 2341 ft | 140 kts | 278° |
| 2026-04-20 20:04 | 64.58735 | 40.97430 | 2158 ft | 136 kts | 278° |
| 2026-04-20 20:04 | 64.58846 | 40.95252 | 1960 ft | 135 kts | 277° |
| 2026-04-20 20:04 | 64.58954 | 40.93098 | 1782 ft | 134 kts | 278° |
| 2026-04-20 20:04 | 64.59063 | 40.90951 | 1585 ft | 133 kts | 278° |
| 2026-04-20 20:05 | 64.59170 | 40.88816 | 1393 ft | 132 kts | 278° |
| 2026-04-20 20:05 | 64.59279 | 40.86695 | 1209 ft | 132 kts | 278° |
| 2026-04-20 20:05 | 64.59389 | 40.84580 | 998 ft | 132 kts | 278° |
| 2026-04-20 20:05 | 64.59495 | 40.82469 | 768 ft | 131 kts | 277° |
| 2026-04-20 20:06 | 64.59594 | 40.80370 | 646 ft | 130 kts | 277° |
| 2026-04-20 20:06 | 64.59697 | 40.78295 | 472 ft | 131 kts | 276° |
| 2026-04-20 20:06 | 64.59805 | 40.76187 | 281 ft | 130 kts | 276° |
| 2026-04-20 20:06 | 64.59912 | 40.74089 | 94 ft | 131 kts | 277° |
| 2026-04-20 20:07 | 64.60004 | 40.72200 | 60 ft | 95 kts | 276° |
| 2026-04-20 20:07 | 64.60036 | 40.71346 | 62 ft | 7 kts | 238° |
| 2026-04-20 20:07 | 64.59994 | 40.71334 | 56 ft | 14 kts | 187° |
| 2026-04-20 20:07 | 64.59915 | 40.71312 | 57 ft | 0 kts | 186° |
| 2026-04-20 20:09 | 64.59911 | 40.71311 | 54 ft | 3 kts | 186° |
| 2026-04-20 20:09 | 64.59902 | 40.71309 | 57 ft | 1 kts | 186° |
| 2026-04-20 20:09 | 64.59870 | 40.71299 | 53 ft | 8 kts | 192° |
| 2026-04-20 20:10 | 64.59818 | 40.71185 | 56 ft | 12 kts | 204° |
| 2026-04-20 20:10 | 64.59748 | 40.71160 | 58 ft | 7 kts | 150° |
| 2026-04-20 20:10 | 64.59729 | 40.71263 | 60 ft | 6 kts | 96° |
| 2026-04-20 20:10 | 64.59725 | 40.71353 | 56 ft | 5 kts | 96° |
| 2026-04-20 20:11 | 64.59710 | 40.71464 | 53 ft | 11 kts | 124° |
| 2026-04-20 20:11 | 64.59677 | 40.71509 | 57 ft | 0 kts | 192° |